createdAt,value
2022-07-26T00:00:42.642Z,4.20
2022-07-26T00:03:29.699Z,4.35
2022-07-26T00:06:18.071Z,4.43
2022-07-26T00:09:06.440Z,3.65
2022-07-26T00:11:53.569Z,3.65
2022-07-26T00:14:40.545Z,4.22
2022-07-26T00:17:28.065Z,4.22
2022-07-26T00:20:14.970Z,3.55
2022-07-26T00:23:02.027Z,3.55
2022-07-26T00:25:48.945Z,3.90
2022-07-26T00:28:36.274Z,4.45
2022-07-26T00:31:23.519Z,3.90
2022-07-26T00:34:10.535Z,3.70
2022-07-26T00:36:57.457Z,3.95
2022-07-26T00:39:44.428Z,3.20
2022-07-26T00:42:31.527Z,3.67
2022-07-26T00:45:19.153Z,3.50
2022-07-26T00:48:06.455Z,3.08
2022-07-26T00:50:54.838Z,3.47
2022-07-26T00:53:44.989Z,3.00
2022-07-26T00:56:34.129Z,3.30
2022-07-26T00:59:21.272Z,3.10
2022-07-26T01:02:09.564Z,3.22
2022-07-26T01:04:56.715Z,3.88
2022-07-26T01:07:43.970Z,3.85
2022-07-26T01:10:30.969Z,3.33
2022-07-26T01:13:21.494Z,3.90
2022-07-26T01:16:08.772Z,3.92
2022-07-26T01:18:55.808Z,4.47
2022-07-26T01:21:43.109Z,4.35
2022-07-26T01:24:30.125Z,4.55
2022-07-26T01:27:17.357Z,4.78
2022-07-26T01:30:05.693Z,4.28
2022-07-26T01:32:52.721Z,4.22
2022-07-26T01:35:39.676Z,4.60
2022-07-26T01:38:27.500Z,4.72
2022-07-26T01:41:14.473Z,5.07
2022-07-26T01:44:02.450Z,4.10
2022-07-26T01:46:49.535Z,4.95
2022-07-26T01:49:36.635Z,4.13
2022-07-26T01:52:23.580Z,4.37
2022-07-26T01:55:10.668Z,4.47
2022-07-26T01:57:57.589Z,5.00
2022-07-26T02:00:44.663Z,4.50
2022-07-26T02:03:31.639Z,4.17
2022-07-26T02:06:18.576Z,4.60
2022-07-26T02:09:07.599Z,4.10
2022-07-26T02:11:58.577Z,3.85
2022-07-26T02:14:45.548Z,4.00
2022-07-26T02:17:32.750Z,4.32
2022-07-26T02:20:19.670Z,4.27
2022-07-26T02:23:06.869Z,4.25
2022-07-26T02:25:54.379Z,3.90
2022-07-26T02:28:41.767Z,3.90
2022-07-26T02:31:32.334Z,4.75
2022-07-26T02:34:20.100Z,3.75
2022-07-26T02:37:07.500Z,4.38
2022-07-26T02:39:54.453Z,4.40
2022-07-26T02:42:41.420Z,3.17
2022-07-26T02:45:28.807Z,3.93
2022-07-26T02:48:15.920Z,3.92
2022-07-26T02:51:04.059Z,4.00
2022-07-26T02:53:51.078Z,4.57
2022-07-26T02:56:38.068Z,4.22
2022-07-26T02:59:25.006Z,4.60
2022-07-26T03:02:11.915Z,4.10
2022-07-26T03:04:58.836Z,4.50
2022-07-26T03:07:46.715Z,4.40
2022-07-26T03:10:33.852Z,4.47
2022-07-26T03:13:20.873Z,3.88
2022-07-26T03:16:08.183Z,4.63
2022-07-26T03:18:55.129Z,4.63
2022-07-26T03:21:42.015Z,4.57
2022-07-26T03:24:28.915Z,3.80
2022-07-26T03:27:15.861Z,3.43
2022-07-26T03:30:03.273Z,4.93
2022-07-26T03:32:50.314Z,4.60
2022-07-26T03:35:37.387Z,4.33
2022-07-26T03:38:24.502Z,3.88
2022-07-26T03:41:13.512Z,4.32
2022-07-26T03:44:00.849Z,4.25
2022-07-26T03:46:47.862Z,3.75
2022-07-26T03:49:35.156Z,3.70
2022-07-26T03:52:22.101Z,4.32
2022-07-26T03:55:28.167Z,3.75
2022-07-26T03:58:15.161Z,3.30
2022-07-26T04:01:02.105Z,3.28
2022-07-26T04:04:09.087Z,3.95
2022-07-26T04:06:59.265Z,4.25
2022-07-26T04:09:50.692Z,3.65
2022-07-26T04:12:38.172Z,4.32
2022-07-26T04:15:25.180Z,3.75
2022-07-26T04:18:16.364Z,3.97
2022-07-26T04:21:03.946Z,3.67
2022-07-26T04:23:51.813Z,4.03
2022-07-26T04:26:38.970Z,4.45
2022-07-26T04:29:25.930Z,4.07
2022-07-26T04:32:12.913Z,4.25
2022-07-26T04:34:59.896Z,4.28
2022-07-26T04:37:47.453Z,4.10
2022-07-26T04:40:34.567Z,4.10
2022-07-26T04:43:27.831Z,4.50
2022-07-26T04:46:14.900Z,4.87
2022-07-26T04:49:01.907Z,3.85
2022-07-26T04:51:48.906Z,3.40
2022-07-26T04:54:35.870Z,3.70
2022-07-26T04:57:23.490Z,3.83
2022-07-26T05:00:27.754Z,3.95
2022-07-26T05:03:14.817Z,3.85
2022-07-26T05:06:01.816Z,3.47
2022-07-26T05:08:49.007Z,3.95
2022-07-26T05:11:36.102Z,4.25
2022-07-26T05:14:23.088Z,3.65
2022-07-26T05:17:11.387Z,4.55
2022-07-26T05:20:03.245Z,3.88
2022-07-26T05:22:50.424Z,4.05
2022-07-26T05:25:38.599Z,3.60
2022-07-26T05:28:25.591Z,3.83
2022-07-26T05:31:12.644Z,3.67
2022-07-26T05:33:59.645Z,3.55
2022-07-26T05:36:46.576Z,3.75
2022-07-26T05:39:33.506Z,2.97
2022-07-26T05:42:20.510Z,3.47
2022-07-26T05:45:08.206Z,3.30
2022-07-26T05:47:55.680Z,3.50
2022-07-26T05:50:42.840Z,3.75
2022-07-26T05:53:29.853Z,3.17
2022-07-26T05:56:16.910Z,2.80
2022-07-26T05:59:04.078Z,3.10
2022-07-26T06:01:51.010Z,3.15
2022-07-26T06:04:38.147Z,2.67
2022-07-26T06:07:25.184Z,2.90
2022-07-26T06:10:12.271Z,2.42
2022-07-26T06:13:00.605Z,2.63
2022-07-26T06:15:48.001Z,2.70
2022-07-26T06:18:35.386Z,2.50
2022-07-26T06:21:22.382Z,2.78
2022-07-26T06:24:09.801Z,3.10
2022-07-26T06:27:05.406Z,2.45
2022-07-26T06:29:53.268Z,2.53
2022-07-26T06:32:44.163Z,2.42
2022-07-26T06:35:32.046Z,2.47
2022-07-26T06:38:18.983Z,1.98
2022-07-26T06:41:06.180Z,2.50
2022-07-26T06:43:53.560Z,2.53
2022-07-26T06:46:40.584Z,2.42
2022-07-26T06:49:27.584Z,2.53
2022-07-26T06:52:14.555Z,2.10
2022-07-26T06:55:02.115Z,2.40
2022-07-26T06:57:50.031Z,2.33
2022-07-26T07:00:37.563Z,2.83
2022-07-26T07:03:24.560Z,2.40
2022-07-26T07:06:11.536Z,2.45
2022-07-26T07:08:58.666Z,1.58
2022-07-26T07:11:49.186Z,2.05
2022-07-26T07:14:39.625Z,1.90
2022-07-26T07:17:26.559Z,1.85
2022-07-26T07:20:13.589Z,2.65
2022-07-26T07:23:00.549Z,1.80
2022-07-26T07:25:47.576Z,1.67
2022-07-26T07:28:38.420Z,1.85
2022-07-26T07:31:30.418Z,1.77
2022-07-26T07:34:20.680Z,1.90
2022-07-26T07:37:08.571Z,1.90
2022-07-26T07:39:59.019Z,1.58
2022-07-26T07:42:46.027Z,1.40
2022-07-26T07:45:32.985Z,1.58
2022-07-26T07:48:19.976Z,1.30
2022-07-26T07:51:08.128Z,1.17
2022-07-26T07:53:56.662Z,1.10
2022-07-26T07:56:44.264Z,1.20
2022-07-26T07:59:31.173Z,1.40
2022-07-26T08:02:18.118Z,1.38
2022-07-26T08:05:14.002Z,1.45
2022-07-26T08:08:03.318Z,1.10
2022-07-26T08:10:52.804Z,1.40
2022-07-26T08:13:42.397Z,1.58
2022-07-26T08:16:34.679Z,1.30
2022-07-26T08:19:22.637Z,1.25
2022-07-26T08:22:10.825Z,1.52
2022-07-26T08:24:57.832Z,1.55
2022-07-26T08:27:55.074Z,1.30
2022-07-26T08:30:49.768Z,1.63
2022-07-26T08:33:36.762Z,1.35
2022-07-26T08:36:32.156Z,1.40
2022-07-26T08:39:19.777Z,1.23
2022-07-26T08:42:22.771Z,1.38
2022-07-26T08:45:10.099Z,1.33
2022-07-26T08:48:18.487Z,1.60
2022-07-26T08:51:11.106Z,1.52
2022-07-26T08:54:07.838Z,1.70
2022-07-26T08:56:54.832Z,1.20
2022-07-26T08:59:41.976Z,1.40
2022-07-26T09:02:40.216Z,1.35
2022-07-26T09:05:35.225Z,1.40
2022-07-26T09:08:25.288Z,1.45
2022-07-26T09:11:24.477Z,1.50
2022-07-26T09:14:11.627Z,1.70
2022-07-26T09:16:59.984Z,1.27
2022-07-26T09:20:02.075Z,1.38
2022-07-26T09:23:04.112Z,1.48
2022-07-26T09:25:51.023Z,1.23
2022-07-26T09:28:38.204Z,1.30
2022-07-26T09:31:32.432Z,1.60
2022-07-26T09:34:28.526Z,1.02
2022-07-26T09:37:16.830Z,1.30
2022-07-26T09:40:07.284Z,1.35
2022-07-26T09:43:05.642Z,1.30
2022-07-26T09:46:04.059Z,0.90
2022-07-26T09:51:58.251Z,1.33
2022-07-26T09:54:47.620Z,1.35
2022-07-26T09:57:35.397Z,1.25
2022-07-26T10:00:22.560Z,1.13
2022-07-26T10:03:09.702Z,1.10
2022-07-26T10:05:58.026Z,1.15
2022-07-26T10:08:45.339Z,1.40
2022-07-26T10:11:57.306Z,1.33
2022-07-26T10:14:51.194Z,1.17
2022-07-26T10:17:39.249Z,1.35
2022-07-26T10:20:42.742Z,1.20
2022-07-26T10:23:38.988Z,0.95
2022-07-26T10:26:31.940Z,0.93
2022-07-26T10:29:26.161Z,1.23
2022-07-26T10:32:15.494Z,1.20
2022-07-26T10:35:34.345Z,1.27
2022-07-26T10:38:25.535Z,1.33
2022-07-26T10:41:12.464Z,1.35
2022-07-26T10:44:13.591Z,1.45
2022-07-26T10:47:12.015Z,1.90
2022-07-26T10:49:59.458Z,1.30
2022-07-26T10:52:59.923Z,1.40
2022-07-26T10:55:50.792Z,1.00
2022-07-26T10:58:43.156Z,1.17
2022-07-26T11:01:38.750Z,1.40
2022-07-26T11:04:25.984Z,1.70
2022-07-26T11:07:13.051Z,1.40
2022-07-26T11:10:00.807Z,1.30
2022-07-26T11:12:47.797Z,1.20
2022-07-26T11:15:36.598Z,1.35
2022-07-26T11:18:27.825Z,1.48
2022-07-26T11:21:16.797Z,1.63
2022-07-26T11:24:04.045Z,1.38
2022-07-26T11:26:51.018Z,1.50
2022-07-26T11:29:40.731Z,1.50
2022-07-26T11:32:28.378Z,1.13
2022-07-26T11:35:15.407Z,2.05
2022-07-26T11:38:11.736Z,1.67
2022-07-26T11:40:59.443Z,1.40
2022-07-26T11:43:46.425Z,1.60
2022-07-26T11:46:47.595Z,1.80
2022-07-26T11:49:59.817Z,1.80
2022-07-26T11:52:42.639Z,1.40
2022-07-26T11:55:31.418Z,1.73
2022-07-26T11:58:18.627Z,1.60
2022-07-26T12:01:06.390Z,2.00
2022-07-26T12:03:55.271Z,1.85
2022-07-26T12:06:42.242Z,2.40
2022-07-26T12:09:29.272Z,2.00
2022-07-26T12:12:31.065Z,1.92
2022-07-26T12:15:17.999Z,2.38
2022-07-26T12:18:04.996Z,2.50
2022-07-26T12:21:06.126Z,2.40
2022-07-26T12:23:54.389Z,2.15
2022-07-26T12:26:41.411Z,2.15
2022-07-26T12:29:32.972Z,2.22
2022-07-26T12:32:21.204Z,2.63
2022-07-26T12:35:16.304Z,2.10
2022-07-26T12:38:04.143Z,2.58
2022-07-26T12:40:51.048Z,2.80
2022-07-26T12:43:41.615Z,2.08
2022-07-26T12:46:35.076Z,2.15
2022-07-26T12:49:22.134Z,2.50
2022-07-26T12:52:09.127Z,2.42
2022-07-26T12:54:56.114Z,2.15
2022-07-26T12:57:46.093Z,2.00
2022-07-26T13:00:34.725Z,2.28
2022-07-26T13:03:21.661Z,1.98
2022-07-26T13:06:08.680Z,2.33
2022-07-26T13:08:56.385Z,2.10
2022-07-26T13:11:43.476Z,2.05
2022-07-26T13:14:32.837Z,1.92
2022-07-26T13:17:19.889Z,1.77
2022-07-26T13:20:07.443Z,2.13
2022-07-26T13:22:54.415Z,2.00
2022-07-26T13:25:41.347Z,1.75
2022-07-26T13:28:30.012Z,2.40
2022-07-26T13:31:17.517Z,1.70
2022-07-26T13:34:05.156Z,1.98
2022-07-26T13:36:52.479Z,2.10
2022-07-26T13:39:39.393Z,2.20
2022-07-26T13:42:26.421Z,2.30
2022-07-26T13:45:13.378Z,1.92
2022-07-26T13:48:00.312Z,2.13
2022-07-26T13:50:47.233Z,1.70
2022-07-26T13:53:34.306Z,2.15
2022-07-26T13:56:21.304Z,1.83
2022-07-26T13:59:08.816Z,1.60
2022-07-26T14:01:56.981Z,1.92
2022-07-26T14:04:44.121Z,1.90
2022-07-26T14:07:31.044Z,1.90
2022-07-26T14:10:19.041Z,1.90
2022-07-26T14:13:07.275Z,2.05
2022-07-26T14:15:54.272Z,1.90
2022-07-26T14:18:41.188Z,2.10
2022-07-26T14:21:38.489Z,2.33
2022-07-26T14:24:34.992Z,2.13
2022-07-26T14:27:21.969Z,2.10
2022-07-26T14:30:09.344Z,2.17
2022-07-26T14:32:56.308Z,1.98
2022-07-26T14:35:44.037Z,2.45
2022-07-26T14:38:31.056Z,2.33
2022-07-26T14:41:18.063Z,2.38
2022-07-26T14:44:05.432Z,2.42
2022-07-26T14:46:53.390Z,2.08
2022-07-26T14:49:40.467Z,2.13
2022-07-26T14:52:27.424Z,2.22
2022-07-26T14:55:15.657Z,2.00
2022-07-26T14:58:02.594Z,1.60
2022-07-26T15:00:52.294Z,1.95
2022-07-26T15:03:39.338Z,2.47
2022-07-26T15:06:26.293Z,1.70
2022-07-26T15:09:13.236Z,1.90
2022-07-26T15:12:00.475Z,2.45
2022-07-26T15:14:47.470Z,2.42
2022-07-26T15:17:34.719Z,2.30
2022-07-26T15:20:23.036Z,2.60
2022-07-26T15:23:10.244Z,2.00
2022-07-26T15:25:58.845Z,1.92
2022-07-26T15:28:45.788Z,2.67
2022-07-26T15:31:36.726Z,2.42
2022-07-26T15:34:24.728Z,2.38
2022-07-26T15:37:11.674Z,1.98
2022-07-26T15:39:58.920Z,1.98
2022-07-26T15:42:47.215Z,2.10
2022-07-26T15:45:37.271Z,1.95
2022-07-26T15:48:24.340Z,1.65
2022-07-26T15:51:11.281Z,1.85
2022-07-26T15:53:58.505Z,1.67
2022-07-26T15:56:45.498Z,1.45
2022-07-26T15:59:32.590Z,1.52
2022-07-26T16:02:19.583Z,1.60
2022-07-26T16:05:06.868Z,1.50
2022-07-26T16:07:54.139Z,1.80
2022-07-26T16:10:41.769Z,1.92
2022-07-26T16:13:28.745Z,1.70
2022-07-26T16:16:15.847Z,1.83
2022-07-26T16:19:02.925Z,2.30
2022-07-26T16:21:49.991Z,2.22
2022-07-26T16:24:37.073Z,2.00
2022-07-26T16:27:24.039Z,2.55
2022-07-26T16:30:12.800Z,2.22
2022-07-26T16:32:59.762Z,1.85
2022-07-26T16:35:46.643Z,2.25
2022-07-26T16:38:33.641Z,2.65
2022-07-26T16:41:20.600Z,2.67
2022-07-26T16:44:07.610Z,2.38
2022-07-26T16:46:54.820Z,2.83
2022-07-26T16:49:41.945Z,2.30
2022-07-26T16:52:28.923Z,2.55
2022-07-26T16:55:16.278Z,2.13
2022-07-26T16:58:03.232Z,2.72
2022-07-26T17:00:50.447Z,2.67
2022-07-26T17:03:37.710Z,1.95
2022-07-26T17:06:24.719Z,2.40
2022-07-26T17:09:15.463Z,1.90
2022-07-26T17:12:06.374Z,2.08
2022-07-26T17:14:53.792Z,2.10
2022-07-26T17:17:43.748Z,2.25
2022-07-26T17:20:32.672Z,1.63
2022-07-26T17:23:19.662Z,2.15
2022-07-26T17:26:06.629Z,1.83
2022-07-26T17:28:53.549Z,1.73
2022-07-26T17:31:40.680Z,1.88
2022-07-26T17:34:27.863Z,1.65
2022-07-26T17:37:14.829Z,1.40
2022-07-26T17:40:04.838Z,1.92
2022-07-26T17:42:55.355Z,1.45
2022-07-26T17:45:42.302Z,1.70
2022-07-26T17:48:29.435Z,1.88
2022-07-26T17:51:17.641Z,1.33
2022-07-26T17:54:04.767Z,1.73
2022-07-26T17:56:52.942Z,1.70
2022-07-26T17:59:39.898Z,2.15
2022-07-26T18:02:26.844Z,1.67
2022-07-26T18:05:14.823Z,2.20
2022-07-26T18:08:01.908Z,2.03
2022-07-26T18:10:51.250Z,1.70
2022-07-26T18:13:39.551Z,1.70
2022-07-26T18:16:27.335Z,1.67
2022-07-26T18:19:15.261Z,1.77
2022-07-26T18:22:05.932Z,1.67
2022-07-26T18:24:53.822Z,1.50
2022-07-26T18:27:40.797Z,2.00
2022-07-26T18:30:29.798Z,1.77
2022-07-26T18:33:16.740Z,1.70
2022-07-26T18:36:03.876Z,1.63
2022-07-26T18:38:51.141Z,1.70
2022-07-26T18:41:38.348Z,1.73
2022-07-26T18:44:25.337Z,1.77
2022-07-26T18:47:12.284Z,1.75
2022-07-26T18:49:59.193Z,2.03
2022-07-26T18:52:46.495Z,1.92
2022-07-26T18:55:33.812Z,1.63
2022-07-26T18:58:21.797Z,1.60
2022-07-26T19:01:14.690Z,1.83
2022-07-26T19:04:06.358Z,1.80
2022-07-26T19:06:54.657Z,1.77
2022-07-26T19:09:41.623Z,1.85
2022-07-26T19:12:28.616Z,1.90
2022-07-26T19:15:16.586Z,1.50
2022-07-26T19:18:16.679Z,2.13
2022-07-26T19:21:03.915Z,1.60
2022-07-26T19:23:50.964Z,1.60
2022-07-26T19:26:37.940Z,1.80
2022-07-26T19:29:24.908Z,1.77
2022-07-26T19:32:11.832Z,1.63
2022-07-26T19:34:58.807Z,2.15
2022-07-26T19:37:45.855Z,2.30
2022-07-26T19:40:32.915Z,1.55
2022-07-26T19:43:19.873Z,1.60
2022-07-26T19:46:08.664Z,1.58
2022-07-26T19:48:55.870Z,1.65
2022-07-26T19:51:43.762Z,2.05
2022-07-26T19:54:30.743Z,1.80
2022-07-26T19:57:19.316Z,1.80
2022-07-26T20:00:07.987Z,1.90
2022-07-26T20:02:55.941Z,1.67
2022-07-26T20:05:42.946Z,1.63
2022-07-26T20:08:29.909Z,1.50
2022-07-26T20:11:19.758Z,1.73
2022-07-26T20:14:07.395Z,1.60
2022-07-26T20:16:56.836Z,1.60
2022-07-26T20:19:44.368Z,1.60
2022-07-26T20:22:31.357Z,1.88
2022-07-26T20:25:21.675Z,1.92
2022-07-26T20:28:09.041Z,2.08
2022-07-26T20:30:56.250Z,1.23
2022-07-26T20:33:43.221Z,1.77
2022-07-26T20:36:30.184Z,1.58
2022-07-26T20:39:17.097Z,2.00
2022-07-26T20:42:04.365Z,1.50
2022-07-26T20:44:52.685Z,1.80
2022-07-26T20:47:42.896Z,1.70
2022-07-26T20:50:30.130Z,1.67
2022-07-26T20:53:17.040Z,1.90
2022-07-26T20:56:04.290Z,1.90
2022-07-26T20:58:52.175Z,2.10
2022-07-26T21:01:39.190Z,1.80
2022-07-26T21:04:26.235Z,1.90
2022-07-26T21:07:13.147Z,1.90
2022-07-26T21:10:00.058Z,2.20
2022-07-26T21:12:49.091Z,2.10
2022-07-26T21:15:36.135Z,2.37
2022-07-26T21:18:23.140Z,2.43
2022-07-26T21:21:10.151Z,1.73
2022-07-26T21:23:57.103Z,1.77
2022-07-26T21:26:45.400Z,2.00
2022-07-26T21:29:32.735Z,2.00
2022-07-26T21:32:31.328Z,2.10
2022-07-26T21:35:18.805Z,2.17
2022-07-26T21:38:05.727Z,1.70
2022-07-26T21:40:52.735Z,2.43
2022-07-26T21:43:39.719Z,2.13
2022-07-26T21:46:26.961Z,2.10
2022-07-26T21:49:14.334Z,1.90
2022-07-26T21:52:01.766Z,1.90
2022-07-26T21:54:48.686Z,1.93
2022-07-26T21:57:35.683Z,2.00
2022-07-26T22:00:22.682Z,2.20
2022-07-26T22:03:11.684Z,1.90
2022-07-26T22:05:59.519Z,2.13
2022-07-26T22:08:46.563Z,1.90
2022-07-26T22:11:33.647Z,2.20
2022-07-26T22:14:20.566Z,1.80
2022-07-26T22:17:07.478Z,2.37
2022-07-26T22:19:54.416Z,2.00
2022-07-26T22:22:41.346Z,2.10
2022-07-26T22:25:29.491Z,2.03
2022-07-26T22:28:18.510Z,1.83
2022-07-26T22:31:06.060Z,2.30
2022-07-26T22:33:53.014Z,1.80
2022-07-26T22:36:45.064Z,2.37
2022-07-26T22:39:32.396Z,2.30
2022-07-26T22:42:19.363Z,1.80
2022-07-26T22:45:09.945Z,2.20
2022-07-26T22:47:58.037Z,1.93
2022-07-26T22:50:45.226Z,1.67
2022-07-26T22:53:32.185Z,2.20
2022-07-26T22:56:19.857Z,2.40
2022-07-26T22:59:06.975Z,2.10
2022-07-26T23:01:53.879Z,2.27
2022-07-26T23:04:40.964Z,2.00
2022-07-26T23:07:30.408Z,2.03
2022-07-26T23:10:19.264Z,1.90
2022-07-26T23:13:06.334Z,1.83
2022-07-26T23:15:58.094Z,1.90
2022-07-26T23:18:47.177Z,1.80
2022-07-26T23:21:34.094Z,1.93
2022-07-26T23:24:21.758Z,2.10
2022-07-26T23:27:08.764Z,2.67
2022-07-26T23:29:56.227Z,1.67
2022-07-26T23:32:43.185Z,2.30
2022-07-26T23:35:30.114Z,2.37
2022-07-26T23:38:17.101Z,2.30
2022-07-26T23:41:04.085Z,2.23
2022-07-26T23:43:52.185Z,1.90
2022-07-26T23:46:39.195Z,2.10
2022-07-26T23:49:26.596Z,1.80
2022-07-26T23:52:13.572Z,1.97
2022-07-26T23:55:01.200Z,2.47
2022-07-26T23:57:48.383Z,1.77
